Time;durP1;ratioP1;P1;durP2;ratioP2;P2;SDS_P1;SDS_P2;PMS_P1;PMS_P2;Temp;Humidity;BMP_temperature;BMP_pressure;BME280_temperature;BME280_humidity;BME280_pressure;Samples;Min_cycle;Max_cycle;Signal;HPM_P1;HPM_P2
2022/05/11 00:00:21;;;;;;;4.60;2.63;;;19.40;99.90;;;;;;5052590;28;20171;-81
2022/05/11 00:02:47;;;;;;;4.00;2.40;;;19.40;99.90;;;;;;5052519;28;20183;-81
2022/05/11 00:05:13;;;;;;;5.30;2.73;;;19.40;99.90;;;;;;5051136;28;20764;-82
2022/05/11 00:07:39;;;;;;;4.17;2.93;;;19.40;99.90;;;;;;5052469;28;20410;-80
2022/05/11 00:10:11;;;;;;;4.50;2.90;;;19.30;99.90;;;;;;5052275;28;20770;-81
2022/05/11 00:12:42;;;;;;;7.20;3.00;;;19.30;99.90;;;;;;5052558;28;20168;-81
2022/05/11 00:15:09;;;;;;;5.27;3.40;;;19.30;99.90;;;;;;5050948;28;20458;-81
2022/05/11 00:17:35;;;;;;;5.40;2.90;;;19.20;99.90;;;;;;5052377;28;20417;-81
2022/05/11 00:20:01;;;;;;;4.37;3.00;;;19.20;99.90;;;;;;5051040;28;20498;-80
2022/05/11 00:22:26;;;;;;;3.63;2.63;;;19.10;99.90;;;;;;5052129;28;20210;-81
2022/05/11 00:24:52;;;;;;;5.17;3.00;;;19.10;99.90;;;;;;5052107;28;20430;-81
2022/05/11 00:27:17;;;;;;;3.53;2.53;;;19.20;99.90;;;;;;5034277;28;20187;-80
2022/05/11 00:29:43;;;;;;;5.63;2.97;;;19.20;99.90;;;;;;5034216;28;20171;-82
2022/05/11 00:32:08;;;;;;;4.07;2.77;;;19.10;99.90;;;;;;5054368;28;20532;-81
2022/05/11 00:34:34;;;;;;;5.30;2.40;;;19.10;99.90;;;;;;5040653;28;20741;-81
2022/05/11 00:36:59;;;;;;;4.40;2.77;;;19.10;99.90;;;;;;5057301;28;20635;-81
2022/05/11 00:39:26;;;;;;;5.20;3.07;;;19.10;99.90;;;;;;5040846;28;20191;-81
2022/05/11 00:41:53;;;;;;;5.20;3.20;;;19.10;99.90;;;;;;5058470;28;20171;-81
2022/05/11 00:44:18;;;;;;;3.77;2.63;;;19.10;99.90;;;;;;5040433;28;20472;-80
2022/05/11 00:46:50;;;;;;;3.40;2.60;;;19.00;99.90;;;;;;5056964;28;20417;-81
2022/05/11 00:49:34;;;;;;;4.40;2.70;;;19.00;99.90;;;;;;5058471;28;20195;-80
2022/05/11 00:52:12;;;;;;;4.70;3.20;;;19.10;99.90;;;;;;5056806;28;20440;-81
2022/05/11 00:54:59;;;;;;;3.27;2.53;;;19.10;99.90;;;;;;5052405;28;20527;-81
2022/05/11 00:57:58;;;;;;;5.10;3.00;;;19.00;99.90;;;;;;5034255;28;20402;-81
2022/05/11 01:00:25;;;;;;;4.30;3.03;;;19.00;99.90;;;;;;5020431;28;20805;-81
2022/05/11 01:03:12;;;;;;;4.90;2.97;;;19.00;99.90;;;;;;5020398;28;20781;-81
2022/05/11 01:05:40;;;;;;;3.40;2.40;;;19.00;99.90;;;;;;5020465;28;20838;-80
2022/05/11 01:08:06;;;;;;;7.10;3.27;;;19.00;99.90;;;;;;5038180;28;20510;-82
2022/05/11 01:10:35;;;;;;;5.00;3.67;;;19.00;99.90;;;;;;5020331;28;20426;-82
2022/05/11 01:13:05;;;;;;;4.40;2.90;;;18.90;99.90;;;;;;5020331;28;20865;-81
2022/05/11 01:15:32;;;;;;;4.30;2.90;;;18.90;99.90;;;;;;5020218;28;20438;-81
2022/05/11 01:17:59;;;;;;;4.53;2.53;;;18.90;99.90;;;;;;5038082;28;20443;-81
2022/05/11 01:20:27;;;;;;;6.20;2.93;;;18.90;99.90;;;;;;5020237;28;20415;-81
2022/05/11 01:23:13;;;;;;;3.87;3.20;;;18.80;99.90;;;;;;5038099;28;20423;-81
2022/05/11 01:25:39;;;;;;;5.10;3.17;;;18.90;99.90;;;;;;5037902;28;20421;-81
2022/05/11 01:28:11;;;;;;;3.70;2.67;;;18.80;99.90;;;;;;5020250;28;20501;-82
2022/05/11 01:30:39;;;;;;;4.07;3.03;;;18.90;99.90;;;;;;5038076;28;20173;-82
2022/05/11 01:33:06;;;;;;;4.40;3.07;;;18.90;99.90;;;;;;5020166;28;20493;-81
2022/05/11 01:35:49;;;;;;;4.70;2.90;;;18.90;99.90;;;;;;5020039;28;20811;-81
2022/05/11 01:38:39;;;;;;;5.97;3.07;;;18.80;99.90;;;;;;5020302;28;20422;-81
2022/05/11 01:41:05;;;;;;;5.00;3.30;;;18.80;99.90;;;;;;5019821;28;20832;-81
2022/05/11 01:43:34;;;;;;;6.30;3.53;;;18.60;99.90;;;;;;5036705;28;20415;-81
2022/05/11 01:46:00;;;;;;;4.53;3.10;;;18.60;99.90;;;;;;5016908;28;20219;-81
2022/05/11 01:48:26;;;;;;;4.10;2.90;;;18.60;99.90;;;;;;5033662;28;20425;-81
2022/05/11 01:50:52;;;;;;;4.53;3.13;;;18.50;99.90;;;;;;5034318;28;20416;-81
2022/05/11 01:53:18;;;;;;;4.90;3.20;;;18.40;99.90;;;;;;5016746;28;20978;-82
2022/05/11 01:55:44;;;;;;;6.67;3.70;;;18.40;99.90;;;;;;5016634;28;20481;-81
2022/05/11 01:58:14;;;;;;;6.00;3.70;;;18.40;99.90;;;;;;5044956;23;20220;-84
2022/05/11 02:00:42;;;;;;;5.10;3.30;;;18.40;99.90;;;;;;5038605;28;20183;-84
2022/05/11 02:03:08;;;;;;;4.07;3.50;;;18.30;99.90;;;;;;5055491;28;20406;-83
2022/05/11 02:08:18;;;;;;;5.70;3.13;;;18.30;99.90;;;;;;5057504;28;20433;-82
2022/05/11 02:10:44;;;;;;;6.90;4.00;;;18.30;99.90;;;;;;5055914;28;20419;-85
2022/05/11 02:13:09;;;;;;;4.37;2.80;;;18.30;99.90;;;;;;5029492;28;20998;-84
2022/05/11 02:15:38;;;;;;;3.90;3.03;;;18.30;99.90;;;;;;5036896;28;20275;-84
2022/05/11 02:18:05;;;;;;;6.03;3.40;;;18.20;99.90;;;;;;5054907;28;20282;-84
2022/05/11 02:20:31;;;;;;;4.10;3.13;;;18.20;99.90;;;;;;5054518;28;20419;-85
2022/05/11 02:22:57;;;;;;;4.00;3.20;;;18.20;99.90;;;;;;5037076;28;20798;-84
2022/05/11 02:25:22;;;;;;;5.07;3.47;;;18.10;99.90;;;;;;5036961;28;20410;-84
2022/05/11 02:27:49;;;;;;;4.67;3.27;;;18.10;99.90;;;;;;5036634;28;20686;-83
2022/05/11 02:30:24;;;;;;;5.47;3.07;;;18.10;99.90;;;;;;5036834;28;20167;-84
2022/05/11 02:32:51;;;;;;;4.60;3.43;;;18.10;99.90;;;;;;5054599;28;20466;-85
2022/05/11 02:35:17;;;;;;;6.50;3.20;;;18.10;99.90;;;;;;5036567;28;20422;-84
2022/05/11 02:37:48;;;;;;;4.60;2.80;;;18.10;99.90;;;;;;5054479;28;20437;-84
2022/05/11 02:40:17;;;;;;;4.80;3.50;;;18.00;99.90;;;;;;5036825;28;20441;-84
2022/05/11 02:42:43;;;;;;;5.67;3.90;;;18.00;99.90;;;;;;5054350;28;20406;-83
2022/05/11 02:45:09;;;;;;;7.43;3.80;;;18.00;99.90;;;;;;5036629;28;20426;-83
2022/05/11 02:47:36;;;;;;;5.43;3.80;;;18.00;99.90;;;;;;5054663;28;20438;-84
2022/05/11 02:50:03;;;;;;;4.87;3.87;;;17.90;99.90;;;;;;5054252;28;20433;-84
2022/05/11 02:52:30;;;;;;;5.80;3.10;;;17.90;99.90;;;;;;5054179;28;20422;-84
2022/05/11 02:54:55;;;;;;;4.33;2.93;;;17.90;99.90;;;;;;5035483;28;20901;-84
2022/05/11 02:57:21;;;;;;;5.33;3.50;;;17.80;99.90;;;;;;5035887;28;20490;-85
2022/05/11 02:59:49;;;;;;;6.17;4.00;;;17.90;99.90;;;;;;5036382;28;20741;-83
2022/05/11 03:02:18;;;;;;;4.57;3.73;;;17.80;99.90;;;;;;5035604;28;20195;-83
2022/05/11 03:04:43;;;;;;;4.97;3.67;;;17.80;99.90;;;;;;5035950;28;20422;-84
2022/05/11 03:07:09;;;;;;;5.70;3.50;;;17.80;99.90;;;;;;5035968;28;20481;-85
2022/05/11 03:09:34;;;;;;;4.20;3.30;;;17.80;99.90;;;;;;5035613;28;20194;-85
2022/05/11 03:12:00;;;;;;;8.60;3.57;;;17.70;99.90;;;;;;5035682;28;20292;-84
2022/05/11 03:14:26;;;;;;;4.23;3.33;;;17.70;99.90;;;;;;5053150;28;20211;-84
2022/05/11 03:16:51;;;;;;;5.80;3.47;;;17.80;99.90;;;;;;5035753;28;20203;-85
2022/05/11 03:19:17;;;;;;;5.60;2.80;;;17.70;99.90;;;;;;5035604;28;20650;-84
2022/05/11 03:21:42;;;;;;;7.67;3.80;;;17.60;99.90;;;;;;5053365;28;20179;-83
2022/05/11 03:24:08;;;;;;;6.13;3.83;;;17.60;99.90;;;;;;5053256;28;20181;-82
2022/05/11 03:26:35;;;;;;;5.10;3.37;;;17.60;99.90;;;;;;5035361;28;20199;-83
2022/05/11 03:29:05;;;;;;;5.20;3.57;;;17.60;99.90;;;;;;5035274;28;20230;-84
2022/05/11 03:31:32;;;;;;;6.57;3.23;;;17.40;99.90;;;;;;5035251;28;20421;-84
2022/05/11 03:36:41;;;;;;;4.47;3.50;;;17.30;99.90;;;;;;5053014;28;20922;-83
2022/05/11 03:39:07;;;;;;;7.63;3.90;;;17.40;99.90;;;;;;5052915;28;20410;-84
2022/05/11 03:41:33;;;;;;;6.43;3.30;;;17.30;99.90;;;;;;5034563;28;20202;-83
2022/05/11 03:43:58;;;;;;;5.10;3.83;;;17.30;99.90;;;;;;5034730;28;20187;-83
2022/05/11 03:46:24;;;;;;;6.60;3.53;;;17.30;99.90;;;;;;5052621;28;20207;-83
2022/05/11 03:48:49;;;;;;;4.97;3.00;;;17.30;99.90;;;;;;5034929;28;20175;-82
2022/05/11 03:51:15;;;;;;;5.63;3.70;;;17.30;99.90;;;;;;5052391;28;20218;-83
2022/05/11 03:53:40;;;;;;;6.40;3.60;;;17.30;99.90;;;;;;5034628;28;20213;-84
2022/05/11 03:56:06;;;;;;;5.40;3.80;;;17.30;99.90;;;;;;5034685;28;20180;-82
2022/05/11 03:58:32;;;;;;;8.50;4.17;;;17.20;99.90;;;;;;5034504;28;20337;-83
2022/05/11 04:00:57;;;;;;;6.30;4.23;;;17.20;99.90;;;;;;5034316;28;20176;-83
2022/05/11 04:03:23;;;;;;;5.43;3.47;;;17.10;99.90;;;;;;5052344;28;20191;-83
2022/05/11 04:05:48;;;;;;;7.37;3.80;;;17.10;99.90;;;;;;5034336;28;20601;-83
2022/05/11 04:08:14;;;;;;;6.03;4.20;;;17.10;99.90;;;;;;5051213;28;20238;-83
2022/05/11 04:10:39;;;;;;;7.33;4.53;;;17.10;99.90;;;;;;5052011;28;20262;-83
2022/05/11 04:13:05;;;;;;;5.80;3.77;;;16.90;99.90;;;;;;5034097;28;20245;-83
2022/05/11 04:15:31;;;;;;;6.17;4.30;;;16.80;99.90;;;;;;5052321;28;20198;-82
2022/05/11 04:17:57;;;;;;;8.87;4.20;;;16.80;99.90;;;;;;5033914;28;20972;-83
2022/05/11 04:20:23;;;;;;;5.30;3.30;;;16.70;99.90;;;;;;5034008;28;20175;-83
2022/05/11 04:22:49;;;;;;;4.90;3.70;;;16.70;99.90;;;;;;5034025;28;20250;-83
2022/05/11 04:25:16;;;;;;;7.00;3.87;;;16.60;99.90;;;;;;5034142;28;20422;-83
2022/05/11 04:27:48;;;;;;;6.27;3.80;;;16.60;99.90;;;;;;5034055;28;20754;-82
2022/05/11 04:30:15;;;;;;;4.93;3.70;;;16.60;99.90;;;;;;5034259;28;20421;-83
2022/05/11 04:32:41;;;;;;;5.00;3.90;;;16.50;99.90;;;;;;5051796;28;20891;-82
2022/05/11 04:35:08;;;;;;;4.90;3.53;;;16.50;99.90;;;;;;5034062;28;20466;-83
2022/05/11 04:37:34;;;;;;;5.07;4.00;;;16.50;99.90;;;;;;5051866;28;20192;-83
2022/05/11 04:39:59;;;;;;;5.97;4.67;;;16.70;99.90;;;;;;5034084;28;20564;-83
2022/05/11 04:42:25;;;;;;;6.90;3.83;;;16.70;99.90;;;;;;5034106;28;20240;-84
2022/05/11 04:44:53;;;;;;;4.37;3.50;;;16.70;99.90;;;;;;5033764;28;20187;-84
2022/05/11 04:47:18;;;;;;;9.17;4.03;;;16.80;99.90;;;;;;5051702;28;20278;-83
2022/05/11 04:49:44;;;;;;;5.93;3.70;;;16.80;99.90;;;;;;5051614;28;20915;-83
2022/05/11 04:52:13;;;;;;;5.20;3.53;;;16.70;99.90;;;;;;5033929;28;20278;-82
2022/05/11 04:54:50;;;;;;;6.67;4.20;;;16.80;99.90;;;;;;5033787;28;20211;-83
2022/05/11 04:57:18;;;;;;;5.70;3.97;;;16.70;99.90;;;;;;5033608;28;20461;-83
2022/05/11 04:59:43;;;;;;;6.00;4.00;;;16.70;99.90;;;;;;5033529;28;20952;-83
2022/05/11 05:02:17;;;;;;;9.60;4.77;;;16.70;99.90;;;;;;5033808;28;20418;-83
2022/05/11 05:04:42;;;;;;;8.83;4.00;;;16.70;99.90;;;;;;5033778;28;20225;-83
2022/05/11 05:07:08;;;;;;;5.80;4.03;;;16.70;99.90;;;;;;5033704;28;20858;-83
2022/05/11 05:09:33;;;;;;;4.77;3.73;;;16.80;99.90;;;;;;5033594;28;20333;-83
2022/05/11 05:12:01;;;;;;;7.40;5.00;;;16.80;99.90;;;;;;5034041;28;20603;-83
2022/05/11 05:14:27;;;;;;;6.40;4.13;;;16.90;99.90;;;;;;5033904;28;20223;-83
2022/05/11 05:16:52;;;;;;;6.73;4.50;;;17.10;99.90;;;;;;5033631;28;20442;-83
2022/05/11 05:19:18;;;;;;;6.63;4.70;;;17.20;99.90;;;;;;5036557;28;20663;-84
2022/05/11 05:21:44;;;;;;;6.80;4.80;;;17.40;99.90;;;;;;5037240;28;20667;-82
2022/05/11 05:24:10;;;;;;;6.30;4.47;;;17.60;99.90;;;;;;5037408;28;20270;-83
2022/05/11 05:26:35;;;;;;;6.53;4.80;;;17.70;99.90;;;;;;5054941;28;20210;-83
2022/05/11 05:31:45;;;;;;;6.00;4.43;;;17.90;99.90;;;;;;5055442;28;20198;-83
2022/05/11 05:34:11;;;;;;;6.40;5.23;;;18.00;99.90;;;;;;5055343;28;20485;-84
2022/05/11 05:36:37;;;;;;;7.90;5.70;;;18.10;99.90;;;;;;5037078;28;20286;-81
2022/05/11 05:39:05;;;;;;;8.30;5.67;;;18.20;99.90;;;;;;5038169;28;20225;-83
2022/05/11 05:41:31;;;;;;;11.33;5.90;;;18.30;99.90;;;;;;5044249;28;20422;-84
2022/05/11 05:43:58;;;;;;;8.60;5.27;;;18.30;99.90;;;;;;5045143;28;20437;-84
2022/05/11 05:46:24;;;;;;;9.53;6.03;;;18.40;99.90;;;;;;5044731;28;20986;-84
2022/05/11 05:48:51;;;;;;;7.07;5.40;;;18.60;99.90;;;;;;5063103;28;20423;-84
2022/05/11 05:51:19;;;;;;;7.50;5.87;;;18.70;99.90;;;;;;5044510;28;20445;-84
2022/05/11 05:53:45;;;;;;;6.73;5.80;;;18.70;99.90;;;;;;5063203;28;20541;-84
2022/05/11 05:56:13;;;;;;;7.80;6.00;;;18.70;99.90;;;;;;5062477;28;20406;-82
2022/05/11 05:58:39;;;;;;;7.70;5.77;;;18.80;99.90;;;;;;5061974;28;20438;-84
2022/05/11 06:01:06;;;;;;;8.10;5.57;;;18.80;99.90;;;;;;5043437;28;20425;-83
2022/05/11 06:03:34;;;;;;;7.30;5.43;;;18.90;99.90;;;;;;5061046;28;20442;-84
2022/05/11 06:06:00;;;;;;;9.60;5.77;;;19.10;99.90;;;;;;5060729;28;20560;-84
2022/05/11 06:08:26;;;;;;;8.00;6.37;;;19.10;99.90;;;;;;5060538;28;20477;-83
2022/05/11 06:10:53;;;;;;;8.03;5.97;;;19.20;99.90;;;;;;5059986;28;20657;-84
2022/05/11 06:13:22;;;;;;;6.53;5.43;;;19.20;99.90;;;;;;5060174;28;20486;-83
2022/05/11 06:15:49;;;;;;;8.07;5.10;;;19.30;99.90;;;;;;5042074;28;20418;-84
2022/05/11 06:18:15;;;;;;;6.90;4.73;;;19.40;99.90;;;;;;5041603;28;20445;-84
2022/05/11 06:20:41;;;;;;;7.20;5.77;;;19.60;99.90;;;;;;5058348;28;20429;-84
2022/05/11 06:23:06;;;;;;;9.00;5.03;;;19.70;99.90;;;;;;5058432;28;20415;-83
2022/05/11 06:25:34;;;;;;;7.13;4.97;;;19.80;99.90;;;;;;5058471;28;20179;-83
2022/05/11 06:28:00;;;;;;;6.57;5.00;;;19.90;99.90;;;;;;5039563;28;20192;-82
2022/05/11 06:30:28;;;;;;;5.70;4.40;;;20.00;99.90;;;;;;5056847;28;20497;-82
2022/05/11 06:32:54;;;;;;;5.33;4.23;;;20.10;99.90;;;;;;5037660;28;20415;-82
2022/05/11 06:35:21;;;;;;;6.83;4.57;;;20.10;99.90;;;;;;5053789;28;20516;-82
2022/05/11 06:37:46;;;;;;;7.00;4.40;;;20.10;99.90;;;;;;5035794;28;20456;-81
2022/05/11 06:40:15;;;;;;;7.43;4.20;;;20.20;99.90;;;;;;5035571;28;20422;-81
2022/05/11 06:42:41;;;;;;;5.40;4.20;;;20.10;99.90;;;;;;5053729;28;20182;-81
2022/05/11 06:45:08;;;;;;;4.67;3.70;;;20.30;99.90;;;;;;5053782;28;20421;-82
2022/05/11 06:47:34;;;;;;;7.90;4.07;;;20.50;99.90;;;;;;5053865;28;20838;-81
2022/05/11 06:50:00;;;;;;;6.20;3.80;;;20.50;99.90;;;;;;5035490;28;20476;-82
2022/05/11 06:52:26;;;;;;;5.30;4.03;;;20.70;99.90;;;;;;5035599;28;20422;-82
2022/05/11 07:00:23;;;;;;;5.70;3.17;;;20.90;99.90;;;;;;5038424;28;20469;-81
2022/05/11 07:02:48;;;;;;;4.23;2.90;;;21.00;99.90;;;;;;5035810;28;20843;-82
2022/05/11 07:05:14;;;;;;;4.40;2.97;;;21.00;99.90;;;;;;5053163;28;20212;-81
2022/05/11 07:07:40;;;;;;;5.70;2.90;;;21.20;99.90;;;;;;5053303;28;20655;-82
2022/05/11 07:10:07;;;;;;;3.70;3.20;;;21.20;99.90;;;;;;5053097;28;20195;-82
2022/05/11 07:12:35;;;;;;;4.03;2.83;;;21.30;99.90;;;;;;5035347;28;20188;-82
2022/05/11 07:15:02;;;;;;;6.13;3.30;;;21.40;99.90;;;;;;5053115;28;20498;-80
2022/05/11 07:17:38;;;;;;;4.07;3.10;;;21.50;99.90;;;;;;5053291;28;20433;-83
2022/05/11 07:20:18;;;;;;;4.27;3.33;;;21.60;99.90;;;;;;5054109;28;20414;-83
2022/05/11 07:22:44;;;;;;;4.80;3.37;;;21.80;99.90;;;;;;5056822;28;20757;-83
2022/05/11 07:25:12;;;;;;;8.50;3.40;;;21.70;99.90;;;;;;5057248;28;20425;-81
2022/05/11 07:27:38;;;;;;;5.70;3.33;;;21.80;99.90;;;;;;5072753;28;20659;-83
2022/05/11 07:30:07;;;;;;;3.87;3.07;;;21.80;99.90;;;;;;5062680;28;20414;-81
2022/05/11 07:32:33;;;;;;;5.90;3.27;;;21.90;99.90;;;;;;5043847;28;20418;-83
2022/05/11 07:34:58;;;;;;;7.10;3.87;;;22.00;99.90;;;;;;5043901;28;20489;-83
2022/05/11 07:37:24;;;;;;;6.57;3.63;;;22.00;99.90;;;;;;5060571;28;20203;-82
2022/05/11 07:39:51;;;;;;;7.00;4.17;;;22.00;99.90;;;;;;5060451;28;20187;-83
2022/05/11 07:42:16;;;;;;;6.10;3.93;;;22.10;99.90;;;;;;5059095;28;20719;-82
2022/05/11 07:44:42;;;;;;;6.00;3.77;;;22.20;99.90;;;;;;5059746;28;20450;-82
2022/05/11 07:47:10;;;;;;;5.13;3.53;;;22.30;99.90;;;;;;5058329;28;20227;-81
2022/05/11 07:49:37;;;;;;;7.67;3.70;;;22.30;99.90;;;;;;5040740;28;20188;-83
2022/05/11 07:52:03;;;;;;;4.57;3.17;;;22.60;99.90;;;;;;5040302;28;20856;-82
2022/05/11 07:54:30;;;;;;;4.10;2.90;;;23.20;99.90;;;;;;5040393;28;20533;-82
2022/05/11 07:59:56;;;;;;;3.87;2.63;;;24.70;99.90;;;;;;5081523;22;21014;-78
2022/05/11 08:02:30;;;;;;;4.70;3.33;;;25.40;99.90;;;;;;5055994;28;20504;-79
2022/05/11 08:04:59;;;;;;;4.23;3.00;;;25.80;99.90;;;;;;5048199;28;20414;-79
2022/05/11 08:07:28;;;;;;;4.87;2.93;;;26.10;99.90;;;;;;5051225;28;20442;-78
2022/05/11 08:09:58;;;;;;;4.33;2.33;;;27.00;99.90;;;;;;5024972;28;20593;-79
2022/05/11 08:12:25;;;;;;;7.00;2.70;;;27.90;99.90;;;;;;5042428;28;20411;-79
2022/05/11 08:14:52;;;;;;;3.33;2.00;;;28.60;97.10;;;;;;5040065;28;20462;-80
2022/05/11 08:17:30;;;;;;;3.10;2.30;;;29.10;91.30;;;;;;5020331;28;20443;-80
2022/05/11 08:19:57;;;;;;;3.30;2.50;;;29.70;89.60;;;;;;5020151;28;20423;-80
2022/05/11 08:22:24;;;;;;;4.77;2.53;;;29.70;82.80;;;;;;5029485;28;20426;-80
2022/05/11 08:24:51;;;;;;;4.20;2.50;;;30.20;83.10;;;;;;5029600;28;20423;-80
2022/05/11 08:27:20;;;;;;;3.20;2.33;;;30.50;80.20;;;;;;5029043;28;20447;-80
2022/05/11 08:35:16;;;;;;;3.87;2.40;;;31.50;67.80;;;;;;5039956;28;20474;-79
2022/05/11 08:37:42;;;;;;;4.03;2.03;;;31.80;65.70;;;;;;5021862;28;20450;-79
2022/05/11 08:40:20;;;;;;;3.87;2.47;;;32.40;63.30;;;;;;5019264;28;20499;-79
2022/05/11 08:42:46;;;;;;;3.43;2.27;;;32.90;59.70;;;;;;5023145;28;20933;-79
2022/05/11 08:45:12;;;;;;;3.87;2.20;;;33.20;57.60;;;;;;5020271;28;20419;-79
2022/05/11 08:47:48;;;;;;;4.43;2.80;;;33.60;57.60;;;;;;5021854;28;20204;-80
2022/05/11 08:50:20;;;;;;;4.43;2.60;;;33.60;53.90;;;;;;5024820;28;20427;-79
2022/05/11 08:52:50;;;;;;;3.97;2.40;;;33.90;54.00;;;;;;5006215;28;20428;-79
2022/05/11 08:55:40;;;;;;;3.17;2.33;;;34.60;52.50;;;;;;5010571;28;20502;-79
2022/05/11 08:58:21;;;;;;;3.93;2.40;;;35.50;50.90;;;;;;5013536;28;20450;-79
2022/05/11 09:00:48;;;;;;;3.40;2.57;;;36.30;49.60;;;;;;5012180;28;20443;-79
2022/05/11 09:03:33;;;;;;;5.73;3.07;;;36.40;48.10;;;;;;5013250;28;20428;-79
2022/05/11 09:06:01;;;;;;;4.00;3.07;;;36.40;47.80;;;;;;5011510;28;20811;-79
2022/05/11 09:08:28;;;;;;;8.17;3.07;;;36.10;46.20;;;;;;5015462;28;20419;-79
2022/05/11 09:10:54;;;;;;;5.70;2.90;;;35.90;47.50;;;;;;5013682;28;20427;-78
2022/05/11 09:13:23;;;;;;;5.03;2.80;;;36.50;46.00;;;;;;5013581;28;20467;-78
2022/05/11 09:15:53;;;;;;;3.20;2.57;;;37.30;45.50;;;;;;5012820;28;21016;-79
2022/05/11 09:18:20;;;;;;;5.07;2.70;;;37.50;43.40;;;;;;5012593;28;20455;-79
2022/05/11 09:20:50;;;;;;;4.57;3.80;;;37.90;43.90;;;;;;5012100;28;20766;-79
2022/05/11 09:23:31;;;;;;;5.13;2.60;;;38.00;43.30;;;;;;5012072;28;20500;-79
2022/05/11 09:26:04;;;;;;;4.20;2.97;;;38.10;42.50;;;;;;5011780;28;20426;-79
2022/05/11 09:28:33;;;;;;;4.70;3.13;;;39.00;42.30;;;;;;5011765;28;20961;-79
2022/05/11 09:31:02;;;;;;;3.40;2.77;;;38.90;40.60;;;;;;5010850;28;20423;-79
2022/05/11 09:33:34;;;;;;;3.60;2.70;;;39.00;40.10;;;;;;5010965;28;20462;-79
2022/05/11 09:36:03;;;;;;;4.13;2.70;;;38.90;40.20;;;;;;5010527;28;20515;-79
2022/05/11 09:38:41;;;;;;;5.27;2.90;;;38.90;39.10;;;;;;5010626;28;20451;-79
2022/05/11 09:41:20;;;;;;;4.47;3.00;;;38.20;39.70;;;;;;5010004;28;20412;-79
2022/05/11 09:43:51;;;;;;;3.50;2.70;;;37.50;40.30;;;;;;5010306;28;20911;-79
2022/05/11 09:46:22;;;;;;;3.10;2.47;;;36.80;40.20;;;;;;5010554;28;20444;-79
2022/05/11 09:48:55;;;;;;;3.70;2.77;;;35.80;41.30;;;;;;5010747;28;20506;-79
2022/05/11 09:51:41;;;;;;;3.70;3.03;;;35.60;42.50;;;;;;5010362;28;20423;-79
2022/05/11 09:54:30;;;;;;;5.10;3.10;;;35.50;43.10;;;;;;5010183;28;20502;-79
2022/05/11 09:56:59;;;;;;;5.30;3.43;;;34.70;43.00;;;;;;5009932;28;20828;-79
2022/05/11 09:59:32;;;;;;;3.60;3.03;;;33.70;43.50;;;;;;5009793;28;20431;-78
2022/05/11 10:02:22;;;;;;;4.27;3.50;;;33.40;45.30;;;;;;5009221;28;20432;-79
2022/05/11 10:05:01;;;;;;;5.67;4.97;;;33.60;44.10;;;;;;5007651;28;20427;-78
2022/05/11 10:07:30;;;;;;;4.20;3.47;;;33.40;45.20;;;;;;5005961;28;20452;-78
2022/05/11 10:10:27;;;;;;;6.43;3.70;;;33.00;44.50;;;;;;5023097;28;20502;-78
2022/05/11 10:13:01;;;;;;;7.90;3.73;;;33.20;45.30;;;;;;4970791;28;20428;-79
2022/05/11 10:24:32;;;;;;;6.80;3.50;;;31.40;48.00;;;;;;5035709;28;20419;-79
2022/05/11 10:27:19;;;;;;;5.53;3.60;;;30.70;49.30;;;;;;5042110;28;20447;-80
2022/05/11 10:30:02;;;;;;;4.87;3.50;;;30.20;49.10;;;;;;5024160;28;20438;-81
2022/05/11 10:33:02;;;;;;;4.70;3.50;;;29.80;49.30;;;;;;5021518;28;20433;-78
2022/05/11 10:36:00;;;;;;;4.20;3.53;;;29.50;50.50;;;;;;5022138;28;20439;-77
2022/05/11 10:38:38;;;;;;;5.53;3.00;;;29.30;51.50;;;;;;5004585;28;20756;-78
2022/05/11 10:41:33;;;;;;;4.60;3.03;;;29.10;52.00;;;;;;5019166;28;20451;-79
2022/05/11 10:44:27;;;;;;;3.90;2.83;;;29.00;52.50;;;;;;5029661;28;20420;-79
2022/05/11 10:47:05;;;;;;;5.13;3.37;;;28.30;54.00;;;;;;5020682;28;20437;-80
2022/05/11 10:49:45;;;;;;;5.73;3.50;;;27.90;55.40;;;;;;5040270;28;20412;-79
2022/05/11 10:52:43;;;;;;;5.00;3.00;;;27.40;56.10;;;;;;5038709;28;20415;-78
2022/05/11 10:55:30;;;;;;;3.67;2.70;;;27.20;58.50;;;;;;5038187;28;20447;-79
2022/05/11 10:58:33;;;;;;;4.97;2.80;;;27.40;58.30;;;;;;5023003;28;20446;-79
2022/05/11 11:01:13;;;;;;;4.03;2.90;;;27.10;59.90;;;;;;5021092;28;20576;-79
2022/05/11 11:03:42;;;;;;;3.50;2.90;;;27.30;59.80;;;;;;5039782;28;21250;-79
2022/05/11 11:08:58;;;;;;;3.90;2.60;;;27.30;60.80;;;;;;5038784;28;20462;-79
2022/05/11 11:11:30;;;;;;;5.67;2.73;;;27.30;60.20;;;;;;5038515;28;20411;-79
2022/05/11 11:14:02;;;;;;;4.27;3.07;;;27.30;61.80;;;;;;5050040;28;20454;-78
2022/05/11 11:16:33;;;;;;;3.80;3.17;;;27.30;61.90;;;;;;5044140;28;20528;-79
2022/05/11 11:19:00;;;;;;;3.80;2.73;;;27.20;62.50;;;;;;5038482;28;20416;-79
2022/05/11 11:21:27;;;;;;;6.20;2.90;;;27.20;68.20;;;;;;5022371;28;20449;-80
2022/05/11 11:24:27;;;;;;;4.00;2.60;;;27.20;64.40;;;;;;5020356;28;20443;-80
2022/05/11 11:26:59;;;;;;;5.03;3.27;;;27.30;64.70;;;;;;5034824;28;20442;-80
2022/05/11 11:29:29;;;;;;;5.53;3.80;;;27.40;67.60;;;;;;5022913;28;20494;-81
2022/05/11 11:31:58;;;;;;;3.73;2.93;;;27.60;67.20;;;;;;5038530;28;20423;-80
2022/05/11 11:34:30;;;;;;;4.50;3.40;;;27.70;63.20;;;;;;5042641;28;20454;-81
2022/05/11 11:36:56;;;;;;;4.17;2.90;;;27.80;65.00;;;;;;5024487;28;20458;-81
2022/05/11 11:39:54;;;;;;;7.00;2.70;;;27.80;64.40;;;;;;5019852;28;20423;-80
2022/05/11 11:42:31;;;;;;;4.13;2.97;;;27.80;65.20;;;;;;5021029;28;20441;-81
2022/05/11 11:44:57;;;;;;;4.43;3.43;;;27.80;65.10;;;;;;5022207;28;20431;-80
2022/05/11 11:47:26;;;;;;;5.63;3.40;;;27.80;65.30;;;;;;5018408;28;21021;-81
2022/05/11 11:49:55;;;;;;;3.70;3.20;;;27.80;62.80;;;;;;5016894;28;20188;-79
2022/05/11 11:52:35;;;;;;;4.17;3.40;;;27.80;65.50;;;;;;5017250;28;20474;-79
2022/05/11 11:55:01;;;;;;;4.57;2.83;;;27.90;65.90;;;;;;5017350;28;20469;-79
2022/05/11 11:57:31;;;;;;;4.00;3.30;;;28.00;67.90;;;;;;5017130;28;20435;-79
2022/05/11 12:00:00;;;;;;;4.93;3.40;;;28.20;69.00;;;;;;5036812;28;20435;-80
2022/05/11 12:02:33;;;;;;;4.37;3.30;;;28.30;66.60;;;;;;5034914;28;20424;-80
2022/05/11 12:05:14;;;;;;;5.50;4.00;;;28.30;65.20;;;;;;5050736;28;20415;-80
2022/05/11 12:16:19;;;;;;;3.80;3.10;;;28.60;65.20;;;;;;5046712;28;20438;-80
2022/05/11 12:18:47;;;;;;;5.20;3.30;;;28.90;62.10;;;;;;5027514;28;20431;-79
2022/05/11 12:21:26;;;;;;;4.90;3.27;;;29.30;62.10;;;;;;5044050;28;20494;-80
2022/05/11 12:23:52;;;;;;;3.87;3.20;;;29.80;60.10;;;;;;5027402;28;20434;-80
2022/05/11 12:26:26;;;;;;;4.63;3.27;;;30.30;59.30;;;;;;5025402;28;20447;-80
2022/05/11 12:31:55;;;;;;;5.30;3.27;;;30.40;62.20;;;;;;5043030;28;20945;-80
2022/05/11 12:34:27;;;;;;;4.47;3.43;;;30.40;57.30;;;;;;5024278;28;20466;-79
2022/05/11 12:36:54;;;;;;;3.70;2.97;;;30.10;57.70;;;;;;5027121;28;20462;-80
2022/05/11 12:39:35;;;;;;;7.07;4.67;;;29.90;59.30;;;;;;5029847;28;20435;-80
2022/05/11 12:42:05;;;;;;;4.13;3.47;;;29.60;61.40;;;;;;5021696;28;20980;-80
2022/05/11 12:44:33;;;;;;;4.60;3.30;;;29.70;61.70;;;;;;5022290;28;20430;-80
2022/05/11 12:47:01;;;;;;;4.00;3.40;;;29.80;61.10;;;;;;5022688;28;20439;-79
2022/05/11 12:49:28;;;;;;;4.90;3.43;;;29.70;60.20;;;;;;5023641;28;20427;-80
2022/05/11 12:51:57;;;;;;;5.00;2.90;;;29.50;60.90;;;;;;5020961;28;20427;-80
2022/05/11 12:54:28;;;;;;;5.17;2.60;;;29.40;59.90;;;;;;5019577;28;20466;-79
2022/05/11 12:56:58;;;;;;;4.40;3.77;;;29.50;59.40;;;;;;5024061;28;20775;-80
2022/05/11 12:59:27;;;;;;;5.67;3.23;;;29.40;62.60;;;;;;5037219;28;20423;-80
2022/05/11 13:02:14;;;;;;;4.53;2.97;;;29.60;64.10;;;;;;5020891;28;20493;-80
2022/05/11 13:04:51;;;;;;;5.13;3.20;;;30.00;59.90;;;;;;5019820;28;20431;-81
2022/05/11 13:07:19;;;;;;;3.60;3.03;;;30.10;58.20;;;;;;5017317;28;20435;-79
2022/05/11 13:09:47;;;;;;;4.00;3.10;;;30.00;61.80;;;;;;5015446;28;20419;-79
2022/05/11 13:12:16;;;;;;;5.00;3.40;;;30.20;62.90;;;;;;5014882;28;20411;-79
2022/05/11 13:14:52;;;;;;;4.70;3.47;;;30.40;59.50;;;;;;5023908;28;20451;-79
2022/05/11 13:17:44;;;;;;;5.57;3.07;;;30.50;59.20;;;;;;5019950;28;20446;-80
2022/05/11 13:20:23;;;;;;;4.63;3.30;;;30.60;55.70;;;;;;5014256;28;20453;-79
2022/05/11 13:22:53;;;;;;;4.60;3.13;;;31.10;57.60;;;;;;5015438;28;20496;-79
2022/05/11 13:25:37;;;;;;;5.37;3.07;;;30.80;57.10;;;;;;5014827;28;20427;-79
2022/05/11 13:28:31;;;;;;;4.23;2.90;;;30.70;55.50;;;;;;5031422;28;20453;-79
2022/05/11 13:31:00;;;;;;;4.23;2.87;;;30.60;55.90;;;;;;5030765;28;20462;-80
2022/05/11 13:33:44;;;;;;;4.00;3.23;;;30.50;55.00;;;;;;5018437;28;20829;-80
2022/05/11 13:36:15;;;;;;;4.70;2.80;;;30.30;53.90;;;;;;5035851;28;20434;-80
2022/05/11 13:39:13;;;;;;;3.37;2.43;;;30.50;53.30;;;;;;5014689;28;20419;-79
2022/05/11 13:41:45;;;;;;;5.27;2.27;;;30.50;51.40;;;;;;5012171;28;20559;-79
2022/05/11 13:44:15;;;;;;;2.80;2.03;;;30.60;50.60;;;;;;5034782;28;20422;-79
2022/05/11 13:49:31;;;;;;;4.20;2.60;;;30.40;48.80;;;;;;5039839;28;20425;-80
2022/05/11 13:51:58;;;;;;;3.07;2.20;;;30.20;50.30;;;;;;5022534;28;20510;-80